Tiempo atmosférico en la estación meteorológica de Caldes De Montbui, Barcelona (168 m.)



Fecha
DESCASC
Temp. máxima en grados centígrados (hora)
DESCASC
Temp. mínima en grados centígrados (hora)
DESCASC
Temp. media en grados centígrados
DESCASC
Racha de viento máxima en m/sg (hora)
DESCASC
Velocidad máxima media en intervalos de 10 minutos(hora)
DESCASC
Precipitaciones diarias en mm
DESCASC
Precipitaciones de 00:00 a 06:00 en mm
DESCASC
Precipitaciones de 06:00 a 12:00 en mm
DESCASC
Precipitaciones de 12:00 a 18:00 en mm
DESCASC
Precipitaciones de 18:00 a 24:00 en mm
DESCASC
18-01-2018 13.9 (15:40) 4.4 (23:59) 9.1 6.67 (14:20) 4.72 (14:20) 0 0 0 0 0
17-01-2018 17.3 (15:00) 6.8 (21:20) 12 16.67 (04:40) 11.39 (04:40) 0 0 0 0 0
16-01-2018 14.8 (15:40) 5.6 (08:10) 10.2 14.72 (12:20) 8.33 (12:10) 0 0 0 0 0
15-01-2018 12.1 (14:00) 0.2 (08:00) 6.2 7.78 (15:30) 6.11 (15:30) 0 0 0 0 0
14-01-2018 10.9 (12:50) 3.1 (00:00) 7 6.11 (13:30) 4.44 (13:30) 4.4 4.2 0 0.2 0
13-01-2018 10.7 (14:20) -0.5 (-00:0) 5.1 3.33 (00:20) 2.5 (21:00) 2.2 0 0 0 2.2
12-01-2018 12.6 (15:00) -0.4 (00:00) 6.1 4.17 (18:20) 3.06 (19:10) 0 0 0 0 0
11-01-2018 13.1 (16:00) 2.9 (00:00) 8 8.89 (08:50) 5.28 (08:50) 0.2 0.2 0 0 0
10-01-2018 12.3 (15:30) 3 (00:00) 7.7 8.06 (23:50) 5.56 (14:30) 0 0 0 0 0
09-01-2018 13.5 (14:10) 1.4 (00:00) 7.4 6.94 (14:50) 4.17 (14:50) 0 0 0 0 0
08-01-2018 12.3 (15:40) 1 (00:00) 6.7 3.89 (20:10) 2.78 (01:50) 0.2 0.2 0 0 0
07-01-2018 13.3 (00:10) 3.7 (00:00) 8.5 9.72 (17:50) 6.39 (17:50) 24.2 0.6 11 12.4 0.2
06-01-2018 15.2 (14:40) 3.8 (00:00) 9.5 10 (19:30) 4.72 (21:20) 0 0 0 0 0
05-01-2018 18.1 (13:40) 5.7 (00:00) 11.9 12.5 (11:40) 7.78 (11:30) 0 0 0 0 0
04-01-2018 20.6 (15:10) 10 (04:00) 15.3 9.72 (14:50) 6.39 (14:40) 0 0 0 0 0
03-01-2018 20.3 (15:40) 8.9 (00:00) 14.6 15 (15:20) 9.72 (15:10) 0 0 0 0 0
02-01-2018 15.9 (14:40) 2.5 (00:00) 9.2 15.28 (00:10) 8.61 (00:30) 0 0 0 0 0
01-01-2018 13.9 (14:40) 3.8 (00:00) 8.8 16.39 (23:50) 10.83 (23:50) 0 0 0 0 0
31-12-2017 18.6 (14:50) 2.1 (00:00) 10.4 13.33 (20:30) 6.67 (15:30) 0 0 0 0 0
30-12-2017 19.6 (15:40) 3.5 (00:00) 11.6 10.56 (10:50) 6.11 (10:40) 0 0 0 0 0
29-12-2017 12.7 (13:50) 0.6 (00:00) 6.6 7.78 (14:30) 4.44 (18:10) 0 0 0 0 0
28-12-2017 12.5 (15:00) -2.1 (-00:0) 5.2 9.44 (15:00) 5.28 (01:50) 0 0 0 0 0
27-12-2017 12.3 (15:10) 4.1 (00:00) 8.2 24.17 (13:50) 15 (14:20) 1 0.8 0.2 0 0
26-12-2017 13.7 (14:20) 1.2 (00:00) 7.4 8.61 (15:50) 5.28 (16:00) 0 0 0 0 0
25-12-2017 12.5 (15:30) -0.2 (00:00) 6.1 3.89 (13:10) 2.5 (13:10) 0 0 0 0 0
24-12-2017 16.6 (16:00) -1.6 (-00:0) 7.5 4.17 (17:50) 3.06 (17:50) 0 0 0 0 0

Gráficas

Temp. máximas Temp. mínimas Temp. medias Precipitaciones Rachas de viento máximas Velocidades máximas media en intervalos de 10 minutos

Datos horarios

Fecha y hora oficial Temperatura (ºC) Velocidad del viento (km/h) Dirección del viento Racha (km/h) Dirección de racha Precipitación (mm) Presión (hPa) Tendencia (hPa) Humedad (%)
2018-01-22 23:00:00 9 9 Oeste 12 Oeste 0 -- -- 85
2018-01-22 22:00:00 8.4 3 Noroeste 10 Noroeste 0 -- -- 89
2018-01-22 21:00:00 9.1 4 Noroeste 10 Noroeste 0 -- -- 89
2018-01-22 20:00:00 10.2 6 Noroeste 10 Noroeste 0 -- -- 85
2018-01-22 19:00:00 11 3 Noroeste 10 Noroeste 0 -- -- 82
2018-01-22 18:00:00 13.7 5 Sudoeste 10 Norte 0 -- -- 70
2018-01-22 17:00:00 15.8 7 Noroeste 24 Noroeste 0 -- -- 63
2018-01-22 16:00:00 16.8 14 Noroeste 24 Noroeste 0 -- -- 59
2018-01-22 15:00:00 17.3 13 Noroeste 30 Oeste 0 -- -- 56
2018-01-22 14:00:00 16.2 24 Oeste 32 Oeste 0 -- -- 60
2018-01-22 13:00:00 15.5 14 Oeste 35 Noroeste 0 -- -- 62
2018-01-22 12:00:00 15.3 18 Oeste 37 Oeste 0 -- -- 60
2018-01-22 11:00:00 15.3 6 Sudoeste 12 Oeste 0 -- -- 61
2018-01-22 10:00:00 12.9 9 Oeste 18 Sudoeste 0 -- -- 72
2018-01-22 09:00:00 9.5 4 Nordeste 10 Este 0 -- -- 84
2018-01-22 08:00:00 9.8 4 Este 27 Noroeste 0 -- -- 82
2018-01-22 07:00:00 11.9 22 Oeste 37 Oeste 0 -- -- 75
2018-01-22 06:00:00 12.7 7 Sudoeste 21 Noroeste 0 -- -- 71
2018-01-22 05:00:00 12.6 8 Sur 27 Noroeste 0 -- -- 71
2018-01-22 04:00:00 12.9 17 Oeste 28 Noroeste 0 -- -- 70
2018-01-22 03:00:00 12.6 8 Oeste 21 Oeste 0 -- -- 72
2018-01-22 02:00:00 10.3 3 Nordeste 9 Nordeste 0 -- -- 83
2018-01-22 01:00:00 10 4 Este 12 Noroeste 0 -- -- 86
2018-01-22 00:00:00 11.4 7 Este 13 Este 0 -- -- 82
2018-01-21 23:00:00 11.9 4 Este 12 Sudeste 0 -- -- 81
2018-01-21 22:00:00 11.4 5 Sudeste 11 Este 0 -- -- 83
2018-01-21 21:00:00 11.6 2 Sur 12 Sudeste 0 -- -- 81
2018-01-21 20:00:00 13.2 4 Noroeste 9 Noroeste 0 -- -- 76
2018-01-21 19:00:00 15.1 3 Este 14 Este 0 -- -- 68
2018-01-21 18:00:00 16.3 5 Este 10 Noroeste 0 -- -- 63
2018-01-21 17:00:00 20.5 6 Este 20 Sudoeste 0 -- -- 50
2018-01-21 16:00:00 20.6 12 Sur 20 Sudoeste 0 -- -- 50
2018-01-21 15:00:00 19 12 Sudoeste 31 Sudoeste 0 -- -- 54
2018-01-21 14:00:00 17.3 19 Sudoeste 32 Sudoeste 0 -- -- 58
2018-01-21 13:00:00 14.9 14 Sudeste 28 Sur 0 -- -- 66
2018-01-21 12:00:00 13.5 20 Sudoeste 27 Sudoeste 0 -- -- 71
2018-01-21 11:00:00 13.1 16 Sur 25 Sur 0 -- -- 71
2018-01-21 10:00:00 13 9 Sudeste 24 Nordeste 0 -- -- 72
2018-01-21 09:00:00 13 6 Este 28 Oeste 0 -- -- 71
2018-01-21 08:00:00 13.2 5 Este 16 Oeste 0 -- -- 68
2018-01-21 07:00:00 13.6 14 Sudoeste 34 Oeste 0 -- -- 67
2018-01-21 06:00:00 13.6 13 Oeste 28 Sudoeste 0 -- -- 67
2018-01-21 05:00:00 13.5 9 Sur 23 Sudeste 0 -- -- 67
2018-01-21 04:00:00 11.6 7 Este 15 Sudeste 0 -- -- 73
2018-01-21 03:00:00 13.7 5 Sudoeste 23 Sudoeste 0 -- -- 64
2018-01-21 02:00:00 13.1 10 Sur 26 Sudoeste 0 -- -- 67
2018-01-21 01:00:00 13.2 18 Oeste 32 Oeste 0 -- -- 66
2018-01-21 00:00:00 12.9 17 Oeste 33 Oeste 0 -- -- 67
2018-01-20 23:00:00 13.5 26 Oeste 36 Oeste 0 -- -- 63
2018-01-20 22:00:00 13.4 14 Oeste 26 Oeste 0 -- -- 63
2018-01-20 21:00:00 10.4 0 Calma 10 Noroeste 0 -- -- 73
2018-01-20 20:00:00 11 3 Noroeste 8 Nordeste 0 -- -- 68
2018-01-20 19:00:00 11 2 Nordeste 8 Este 0 -- -- 66
2018-01-20 18:00:00 13 4 Nordeste 9 Sur 0 -- -- 59
2018-01-20 17:00:00 15.7 3 Sudoeste 12 Oeste 0 -- -- 49
2018-01-20 16:00:00 15.3 9 Noroeste 24 Oeste 0 -- -- 51
2018-01-20 15:00:00 15.1 8 Norte 13 Sudoeste 0 -- -- 49
2018-01-20 14:00:00 14.5 5 Norte 12 Norte 0 -- -- 54
2018-01-20 13:00:00 13.3 4 Este 9 Sudeste 0 -- -- 59
2018-01-20 12:00:00 11.6 4 Sudeste 9 Sudeste 0 -- -- 69
2018-01-20 11:00:00 8 2 Norte 9 Sudeste 0 -- -- 87
2018-01-20 10:00:00 5.4 3 Sudeste 6 Este 0 -- -- 100
2018-01-20 09:00:00 2.3 0 Calma 8 Noroeste 0 -- -- 100
2018-01-20 08:00:00 1.7 2 Este 8 Sudoeste 0 -- -- 99
2018-01-20 07:00:00 1.8 4 Noroeste 6 Noroeste 0 -- -- 99
2018-01-20 06:00:00 2.6 3 Noroeste 7 Noroeste 0 -- -- 99
2018-01-20 05:00:00 2.5 2 Sudeste 6 Noroeste 0 -- -- 98
2018-01-20 04:00:00 3.2 0 Calma 4 Oeste 0 -- -- 97
2018-01-20 03:00:00 4.4 0 Calma 7 Noroeste 0 -- -- 96
2018-01-20 02:00:00 5.4 4 Noroeste 6 Noroeste 0 -- -- 96
2018-01-20 01:00:00 5.9 0 Calma 6 Sudeste 0 -- -- 92
2018-01-20 00:00:00 7.2 5 Sudeste 12 Noroeste 0 -- -- 89
2018-01-19 23:00:00 7.8 9 Noroeste 17 Noroeste 0 -- -- 87
2018-01-19 22:00:00 7.1 9 Noroeste 16 Noroeste 0 -- -- 89
2018-01-19 21:00:00 6.9 9 Noroeste 16 Noroeste 0 -- -- 89
2018-01-19 20:00:00 6.9 8 Noroeste 14 Noroeste 0 -- -- 88
2018-01-19 19:00:00 7.5 8 Noroeste 13 Noroeste 0 -- -- 88
2018-01-19 18:00:00 9.3 5 Noroeste 7 Oeste 0 -- -- 81
2018-01-19 17:00:00 12.8 3 Sudeste 8 Este 0 -- -- 68
2018-01-19 16:00:00 12.9 7 Sudeste 12 Sudeste 0 -- -- 64
2018-01-19 15:00:00 13 4 Sudeste 9 Este 0 -- -- 62
2018-01-19 14:00:00 10.6 4 Sudeste 7 Este 0 -- -- 74
2018-01-19 13:00:00 8.4 0 Calma 6 Sudeste 0 -- -- 79
2018-01-19 12:00:00 7.2 3 Sudeste 6 Sudeste 0 -- -- 84
2018-01-19 11:00:00 5.6 0 Calma 5 Sudeste 0 -- -- 91
2018-01-19 10:00:00 3.6 5 Sudeste 8 Oeste 0 -- -- 96
2018-01-19 09:00:00 2.2 5 Noroeste 10 Oeste 0 -- -- 98
2018-01-19 08:00:00 1.3 3 Norte 8 Noroeste 0 -- -- 97
2018-01-19 07:00:00 1.5 3 Noroeste 7 Oeste 0 -- -- 97
2018-01-19 06:00:00 1.5 0 Calma 9 Noroeste 0 -- -- 95
2018-01-19 05:00:00 2 2 Norte 6 Noroeste 0 -- -- 94
2018-01-19 04:00:00 2.4 6 Noroeste 9 Noroeste 0 -- -- 95
2018-01-19 03:00:00 3.4 5 Sur 17 Noroeste 0 -- -- 89
2018-01-19 02:00:00 4.4 6 Noroeste 14 Noroeste 0 -- -- 88
2018-01-19 01:00:00 3.1 7 Noroeste 11 Noroeste 0 -- -- 93
2018-01-19 00:00:00 4.4 3 Este 14 Noroeste 0 -- -- 85
2018-01-18 23:00:00 5.2 9 Noroeste 14 Noroeste 0 -- -- 86
2018-01-18 22:00:00 4.8 5 Noroeste 6 Noroeste 0 -- -- 87
2018-01-18 21:00:00 6.3 3 Este 8 Oeste 0 -- -- 80
2018-01-18 20:00:00 8.4 8 Oeste 21 Noroeste 0 -- -- 71
2018-01-18 19:00:00 9 6 Noroeste 17 Oeste 0 -- -- 69
2018-01-18 18:00:00 10 9 Noroeste 13 Noroeste 0 -- -- 67
2018-01-18 17:00:00 12.7 8 Noroeste 15 Oeste 0 -- -- 57
2018-01-18 16:00:00 13.7 10 Noroeste 18 Oeste 0 -- -- 52
2018-01-18 15:00:00 13.5 10 Oeste 24 Oeste 0 -- -- 53
2018-01-18 14:00:00 13.2 16 Oeste 22 Sudoeste 0 -- -- 54
2018-01-18 13:00:00 13.1 12 Sudoeste 18 Sudoeste 0 -- -- 54
2018-01-18 12:00:00 12.4 4 Este 11 Sudeste 0 -- -- 64
2018-01-18 11:00:00 9.9 9 Sudeste 13 Este 0 -- -- 72
2018-01-18 10:00:00 7.7 2 Sudeste 8 Este 0 -- -- 84
2018-01-18 09:00:00 5.3 5 Noroeste 9 Noroeste 0 -- -- 87
2018-01-18 08:00:00 6 6 Noroeste 11 Noroeste 0 -- -- 85
2018-01-18 07:00:00 6.2 0 Calma 6 Noroeste 0 -- -- 90
2018-01-18 06:00:00 5.9 0 Calma 8 Oeste 0 -- -- 89
2018-01-18 05:00:00 7.5 4 Noroeste 8 Sudoeste 0 -- -- 88
2018-01-18 04:00:00 8.1 3 Sur 10 Nordeste 0 -- -- 86
2018-01-18 03:00:00 8.4 4 Noroeste 9 Este 0 -- -- 88
2018-01-18 02:00:00 8.4 2 Sur 5 Noroeste 0 -- -- 88
2018-01-18 01:00:00 8.2 3 Sur 8 Sudoeste 0 -- -- 85
2018-01-18 00:00:00 8.2 0 Calma 8 Noroeste 0 -- -- 86
2018-01-17 23:00:00 7.6 3 Noroeste 17 Sudeste 0 -- -- 89
2018-01-17 22:00:00 7 10 Noroeste 15 Noroeste 0 -- -- 87
2018-01-17 21:00:00 7.5 3 Noroeste 14 Oeste 0 -- -- 93
2018-01-17 20:00:00 8.6 7 Sudoeste 10 Sudoeste 0 -- -- 93
2018-01-17 19:00:00 9.9 4 Noroeste 8 Noroeste 0 -- -- 88
2018-01-17 18:00:00 12.4 0 Calma 21 Este 0 -- -- 76
2018-01-17 17:00:00 14.8 10 Sudeste 21 Sudeste 0 -- -- 66
2018-01-17 16:00:00 16.1 9 Este 21 Sudeste 0 -- -- 60
2018-01-17 15:00:00 17.3 9 Sudeste 17 Noroeste 0 -- -- 48
2018-01-17 14:00:00 15.9 12 Noroeste 21 Noroeste 0 -- -- 51
2018-01-17 13:00:00 15.3 12 Noroeste 27 Oeste 0 -- -- 55
2018-01-17 12:00:00 14.2 19 Noroeste 31 Noroeste 0 -- -- 58
2018-01-17 11:00:00 14 5 Sudeste 9 Sudeste 0 -- -- 69
2018-01-17 10:00:00 11.3 3 Oeste 8 Sudeste 0 -- -- 78
2018-01-17 09:00:00 9.4 3 Sudeste 13 Este 0 -- -- 83
2018-01-17 08:00:00 11.8 14 Sudoeste 31 Oeste 0 -- -- 71
2018-01-17 07:00:00 11.9 5 Sudoeste 28 Oeste 0 -- -- 72
2018-01-17 06:00:00 12.2 16 Oeste 51 Sudoeste 0 -- -- 72
2018-01-17 05:00:00 12.5 35 Oeste 60 Oeste 0 -- -- 72
2018-01-17 04:00:00 12.7 36 Oeste 53 Oeste 0 -- -- 70
2018-01-17 03:00:00 12.1 18 Sudoeste 36 Oeste 0 -- -- 72
2018-01-17 02:00:00 12.1 11 Sur 39 Sudoeste 0 -- -- 71
2018-01-17 01:00:00 12.7 14 Oeste 41 Oeste 0 -- -- 70
2018-01-17 00:00:00 12.8 7 Oeste 27 Sudoeste 0 -- -- 70
2018-01-16 23:00:00 12.6 16 Sudoeste 39 Oeste 0 -- -- 72
2018-01-16 22:00:00 8.9 5 Sudoeste 14 Oeste 0 -- -- 87
2018-01-16 21:00:00 8.1 0 Calma 9 Sudeste 0 -- -- 88
2018-01-16 20:00:00 9.7 7 Noroeste 13 Oeste 0 -- -- 84
2018-01-16 19:00:00 9.3 2 Oeste 10 Noroeste 0 -- -- 84
2018-01-16 18:00:00 11.8 5 Noroeste 19 Oeste 0 -- -- 76
2018-01-16 17:00:00 14.4 8 Noroeste 22 Noroeste 0 -- -- 63
2018-01-16 16:00:00 14.7 15 Noroeste 24 Oeste 0 -- -- 64
2018-01-16 15:00:00 14.3 14 Noroeste 35 Noroeste 0 -- -- 64
2018-01-16 14:00:00 13.3 19 Oeste 33 Noroeste 0 -- -- 61
2018-01-16 13:00:00 12.4 21 Oeste 53 Noroeste 0 -- -- 64
2018-01-16 12:00:00 12.5 22 Oeste 45 Oeste 0 -- -- 62
2018-01-16 11:00:00 11.7 22 Oeste 40 Oeste 0 -- -- 64
2018-01-16 10:00:00 10 20 Oeste 37 Noroeste 0 -- -- 68
2018-01-16 09:00:00 7.4 14 Sudoeste 23 Oeste 0 -- -- 76
2018-01-16 08:00:00 6.2 6 Oeste 18 Oeste 0 -- -- 78
2018-01-16 07:00:00 6.4 11 Oeste 26 Oeste 0 -- -- 78
2018-01-16 06:00:00 6.8 14 Oeste 31 Oeste 0 -- -- 76
2018-01-16 05:00:00 7.2 16 Oeste 32 Oeste 0 -- -- 74
2018-01-16 04:00:00 6.7 4 Nordeste 13 Noroeste 0 -- -- 78
2018-01-16 03:00:00 6.1 4 Nordeste 12 Sudeste 0 -- -- 82
2018-01-16 02:00:00 7 10 Sudeste 15 Sudeste 0 -- -- 77
2018-01-16 01:00:00 7.5 5 Nordeste 14 Sur 0 -- -- 76
2018-01-16 00:00:00 7.8 8 Sur 21 Sudoeste 0 -- -- 75
2018-01-15 23:00:00 6.4 4 Oeste 19 Sur 0 -- -- 83
2018-01-15 22:00:00 7.6 14 Sudeste 21 Sur 0 -- -- 78
2018-01-15 21:00:00 6.4 2 Sudeste 8 Sudoeste 0 -- -- 81
2018-01-15 20:00:00 5.7 4 Sudoeste 19 Oeste 0 -- -- 80
2018-01-15 19:00:00 7.1 17 Oeste 27 Oeste 0 -- -- 74
2018-01-15 18:00:00 7.3 11 Sudoeste 19 Sudoeste 0 -- -- 75
2018-01-15 17:00:00 8.4 10 Oeste 23 Oeste 0 -- -- 74
2018-01-15 16:00:00 9.5 6 Oeste 28 Noroeste 0 -- -- 65
2018-01-15 15:00:00 11.8 10 Sudoeste 15 Sudoeste 0 -- -- 65
2018-01-15 14:00:00 12.1 5 Este 14 Sudeste 0 -- -- 66
2018-01-15 13:00:00 10.8 7 Sudeste 11 Sudeste 0 -- -- 73
2018-01-15 12:00:00 9 5 Sudeste 7 Sur 0 -- -- 78
2018-01-15 11:00:00 6.3 6 Sudeste 9 Sudeste 0 -- -- 90
2018-01-15 10:00:00 3.3 3 Sudeste 6 Este 0 -- -- 100
2018-01-15 09:00:00 0.6 2 Sudoeste 4 Oeste 0 -- -- 100
2018-01-15 08:00:00 0.2 2 Noroeste 6 Noroeste 0 -- -- 98
2018-01-15 07:00:00 0.9 0 Calma 8 Oeste 0 -- -- 96
2018-01-15 06:00:00 1.7 7 Noroeste 10 Oeste 0 -- -- 97
2018-01-15 05:00:00 2.1 4 Noroeste 9 Noroeste 0 -- -- 96
2018-01-15 04:00:00 2.2 7 Noroeste 9 Noroeste 0 -- -- 97
2018-01-15 03:00:00 1.8 3 Noroeste 7 Sudoeste 0 -- -- 98
2018-01-15 02:00:00 2.1 0 Calma 8 Sudeste 0 -- -- 97
2018-01-15 01:00:00 2.8 3 Sur 5 Noroeste 0 -- -- 96
2018-01-15 00:00:00 3.1 4 Noroeste 5 Oeste 0 -- -- 95
2018-01-14 23:00:00 3.8 4 Noroeste 5 Noroeste 0 -- -- 95
2018-01-14 22:00:00 4.6 0 Calma 0 Calma 0 -- -- 93
2018-01-14 21:00:00 5.8 2 Noroeste 9 Oeste 0 -- -- 89
2018-01-14 20:00:00 6.1 4 Sudoeste 8 Oeste 0 -- -- 86
2018-01-14 19:00:00 7.3 3 Noroeste 8 Noroeste 0 -- -- 83
2018-01-14 18:00:00 8.9 6 Noroeste 14 Noroeste 0 -- -- 76
2018-01-14 17:00:00 10.6 4 Noroeste 12 Noroeste 0 -- -- 70
2018-01-14 16:00:00 10.5 6 Noroeste 17 Noroeste 0 -- -- 72
2018-01-14 15:00:00 10.4 10 Noroeste 19 Noroeste 0 -- -- 72
2018-01-14 14:00:00 10.3 14 Noroeste 22 Noroeste 0.2 -- -- 76
2018-01-14 13:00:00 10.6 13 Noroeste 21 Noroeste 0 -- -- 74
2018-01-14 12:00:00 9.1 2 Oeste 8 Este 0 -- -- 81
2018-01-14 11:00:00 8.5 6 Sudeste 10 Sudeste 0 -- -- 90
2018-01-14 10:00:00 6.7 5 Sudeste 8 Sudeste 0 -- -- 99
2018-01-14 09:00:00 4.3 0 Calma 6 Oeste 0 -- -- 99
2018-01-14 08:00:00 4.5 0 Calma 7 Sudeste 0 -- -- 97
2018-01-14 07:00:00 6 2 Sur 8 Oeste 0 -- -- 98
2018-01-14 06:00:00 5.9 5 Noroeste 9 Noroeste 0 -- -- 98
2018-01-14 05:00:00 6.6 2 Nordeste 11 Oeste 0 -- -- 98
2018-01-14 04:00:00 6.4 4 Noroeste 9 Noroeste 0 -- -- 99
2018-01-14 03:00:00 7.4 0 Calma 7 Noroeste 0 -- -- 98
2018-01-14 02:00:00 8 2 Noroeste 17 Sur 2 -- -- 96
2018-01-14 01:00:00 8.5 6 Sudoeste 16 Sudoeste 2.2 -- -- 98
2018-01-14 00:00:00 8.1 5 Noroeste 10 Oeste 0.4 -- -- 99
2018-01-13 23:00:00 7.7 3 Este 10 Oeste 0.8 -- -- 98
2018-01-13 22:00:00 7.9 4 Noroeste 10 Noroeste 0 -- -- 96
2018-01-13 21:00:00 8.3 9 Noroeste 12 Noroeste 1 -- -- 96
2018-01-13 20:00:00 8.8 6 Noroeste 8 Noroeste 0 -- -- 88
2018-01-13 19:00:00 8.8 6 Noroeste 8 Oeste 0 -- -- 89
2018-01-13 18:00:00 9.3 0 Calma 4 Oeste 0 -- -- 86
2018-01-13 17:00:00 9.8 0 Calma 3 Noroeste 0 -- -- 81
2018-01-13 16:00:00 9.8 0 Calma 7 Sur 0 -- -- 73
2018-01-13 15:00:00 10.1 6 Sudeste 10 Este 0 -- -- 73
2018-01-13 14:00:00 10.1 2 Sudeste 6 Sudeste 0 -- -- 72
2018-01-13 13:00:00 8.8 2 Este 8 Sur 0 -- -- 75
2018-01-13 12:00:00 8.6 4 Sudeste 7 Sudeste 0 -- -- 75
2018-01-13 11:00:00 6 0 Calma 4 Sur 0 -- -- 86
2018-01-13 10:00:00 3.1 2 Sudeste 4 Sudeste 0 -- -- 97
2018-01-13 09:00:00 -0.1 3 Noroeste 6 Noroeste 0 -- -- 99
2018-01-13 08:00:00 -0.5 4 Noroeste 6 Noroeste 0 -- -- 98
2018-01-13 07:00:00 -0.3 4 Noroeste 7 Noroeste 0 -- -- 98
2018-01-13 06:00:00 -0.2 0 Calma 6 Noroeste 0 -- -- 97
2018-01-13 05:00:00 -0.1 3 Noroeste 6 Noroeste 0 -- -- 96
2018-01-13 04:00:00 0.7 2 Norte 10 Oeste 0 -- -- 94
2018-01-13 03:00:00 0.8 4 Noroeste 9 Noroeste 0 -- -- 94
2018-01-13 02:00:00 1.3 5 Noroeste 9 Noroeste 0 -- -- 93
2018-01-13 01:00:00 2 5 Noroeste 12 Noroeste 0 -- -- 88
2018-01-13 00:00:00 2.6 9 Noroeste 13 Noroeste 0 -- -- 84
2018-01-12 23:00:00 2.8 6 Noroeste 13 Oeste 0 -- -- 83
2018-01-12 22:00:00 3 9 Noroeste 13 Noroeste 0 -- -- 82
2018-01-12 21:00:00 3.5 7 Noroeste 12 Noroeste 0 -- -- 81
2018-01-12 20:00:00 4.7 9 Noroeste 14 Oeste 0 -- -- 78
2018-01-12 19:00:00 5.9 10 Oeste 15 Noroeste 0 -- -- 73
2018-01-12 18:00:00 7 8 Noroeste 10 Noroeste 0 -- -- 77
2018-01-12 17:00:00 12.1 4 Sudeste 10 Sur 0 -- -- 53
2018-01-12 16:00:00 12.5 6 Sur 12 Sudeste 0 -- -- 52
2018-01-12 15:00:00 12.6 5 Sudeste 13 Sudeste 0 -- -- 55
2018-01-12 14:00:00 12.2 6 Sudeste 10 Este 0 -- -- 58
2018-01-12 13:00:00 11.1 5 Sur 11 Sudeste 0 -- -- 56
2018-01-12 12:00:00 10 5 Sudeste 10 Sudeste 0 -- -- 57
2018-01-12 11:00:00 6.4 6 Sudeste 10 Sudeste 0 -- -- 76
2018-01-12 10:00:00 3.5 8 Sudoeste 12 Sudoeste 0 -- -- 89
2018-01-12 09:00:00 0.4 5 Noroeste 8 Noroeste 0 -- -- 97
2018-01-12 08:00:00 0.2 0 Calma 8 Sur 0 -- -- 96
2018-01-12 07:00:00 -0.1 0 Calma 9 Sudoeste 0 -- -- 95
2018-01-12 06:00:00 0.3 3 Noroeste 9 Noroeste 0 -- -- 95
2018-01-12 05:00:00 0.9 5 Sudeste 7 Sudeste 0 -- -- 95
2018-01-12 04:00:00 0.8 0 Calma 6 Noroeste 0 -- -- 93
2018-01-12 03:00:00 0.9 4 Noroeste 8 Noroeste 0 -- -- 92
2018-01-12 02:00:00 2.3 3 Este 13 Sudoeste 0 -- -- 88
2018-01-12 01:00:00 2.6 3 Sur 7 Sudoeste 0 -- -- 89
2018-01-12 00:00:00 2.9 2 Noroeste 8 Noroeste 0 -- -- 87
2018-01-11 23:00:00 4.9 4 Sudeste 16 Oeste 0 -- -- 79
2018-01-11 22:00:00 4 2 Noroeste 6 Noroeste 0 -- -- 86
2018-01-11 21:00:00 4.5 6 Oeste 9 Oeste 0 -- -- 84
2018-01-11 20:00:00 5.6 5 Noroeste 8 Noroeste 0 -- -- 83
2018-01-11 19:00:00 7 8 Noroeste 12 Noroeste 0 -- -- 78
2018-01-11 18:00:00 10.1 5 Oeste 14 Oeste 0 -- -- 67
2018-01-11 17:00:00 11.5 10 Oeste 20 Oeste 0 -- -- 57
2018-01-11 16:00:00 13.1 8 Sudoeste 15 Oeste 0 -- -- 50
2018-01-11 15:00:00 12.9 10 Oeste 18 Oeste 0 -- -- 51
2018-01-11 14:00:00 12.3 7 Noroeste 13 Norte 0 -- -- 55
2018-01-11 13:00:00 11 4 Noroeste 17 Noroeste 0 -- -- 56
2018-01-11 12:00:00 10.4 9 Noroeste 17 Noroeste 0 -- -- 60
2018-01-11 11:00:00 8.9 3 Noroeste 14 Sudeste 0 -- -- 65
2018-01-11 10:00:00 7.3 7 Noroeste 21 Noroeste 0 -- -- 72
2018-01-11 09:00:00 6.1 13 Oeste 32 Oeste 0 -- -- 74
2018-01-11 08:00:00 6.3 15 Oeste 24 Oeste 0 -- -- 77
2018-01-11 07:00:00 5.4 4 Este 17 Oeste 0 -- -- 85
2018-01-11 06:00:00 7.1 8 Oeste 18 Oeste 0 -- -- 79
2018-01-11 05:00:00 7.2 3 Oeste 22 Noroeste 0.2 -- -- 87
2018-01-11 04:00:00 8.4 10 Noroeste 18 Norte 0 -- -- 78
2018-01-11 03:00:00 8.9 6 Sudeste 15 Noroeste 0 -- -- 72
2018-01-11 02:00:00 9.5 10 Oeste 25 Noroeste 0 -- -- 70
2018-01-11 01:00:00 9.5 6 Sur 20 Sur 0 -- -- 69
2018-01-11 00:00:00 9.8 13 Sudoeste 29 Oeste 0 -- -- 68
2018-01-10 23:00:00 9.3 10 Oeste 20 Oeste 0 -- -- 71
2018-01-10 22:00:00 7.4 2 Norte 10 Sudeste 0 -- -- 79
2018-01-10 21:00:00 6.9 6 Sudeste 9 Este 0 -- -- 80
2018-01-10 20:00:00 6.9 5 Noroeste 13 Sudoeste 0 -- -- 80
2018-01-10 19:00:00 8.3 5 Sudeste 12 Sur 0 -- -- 70
2018-01-10 18:00:00 9.3 6 Noroeste 15 Sudoeste 0 -- -- 65
2018-01-10 17:00:00 11 18 Oeste 27 Oeste 0 -- -- 60
2018-01-10 16:00:00 12 17 Oeste 26 Oeste 0 -- -- 58
2018-01-10 15:00:00 12.2 15 Oeste 26 Oeste 0 -- -- 55
2018-01-10 14:00:00 12.1 17 Oeste 27 Oeste 0 -- -- 56
2018-01-10 13:00:00 12 5 Oeste 11 Oeste 0 -- -- 52
2018-01-10 12:00:00 11.3 2 Este 9 Nordeste 0 -- -- 57
2018-01-10 11:00:00 9 3 Sur 7 Oeste 0 -- -- 67
2018-01-10 10:00:00 4.8 3 Noroeste 5 Norte 0 -- -- 84
2018-01-10 09:00:00 3.3 3 Noroeste 7 Noroeste 0 -- -- 86
2018-01-10 08:00:00 4.1 3 Sudeste 17 Sudoeste 0 -- -- 81
2018-01-10 07:00:00 3.2 6 Sudeste 9 Sur 0 -- -- 86
2018-01-10 06:00:00 3.8 4 Sudeste 11 Norte 0 -- -- 82
2018-01-10 05:00:00 4.9 5 Oeste 12 Este 0 -- -- 77
2018-01-10 04:00:00 6.7 7 Sur 15 Sur 0 -- -- 68
2018-01-10 03:00:00 5.1 8 Sudeste 13 Sudeste 0 -- -- 77
2018-01-10 02:00:00 5.5 3 Norte 11 Oeste 0 -- -- 74
2018-01-10 01:00:00 5.7 2 Noroeste 26 Sudoeste 0 -- -- 78
2018-01-10 00:00:00 4.6 0 Calma 12 Sur 0 -- -- 83
2018-01-09 23:00:00 4.9 8 Sur 14 Sudoeste 0 -- -- 75
2018-01-09 22:00:00 3.9 3 Norte 6 Noroeste 0 -- -- 87
2018-01-09 21:00:00 4.7 0 Calma 12 Noroeste 0 -- -- 80
2018-01-09 20:00:00 7 6 Oeste 14 Sur 0 -- -- 68
2018-01-09 19:00:00 8.4 9 Sur 13 Sur 0 -- -- 57
2018-01-09 18:00:00 8 3 Sudoeste 10 Oeste 0 -- -- 74
2018-01-09 17:00:00 10.6 8 Oeste 17 Sudoeste 0 -- -- 59
2018-01-09 16:00:00 12.1 9 Sudoeste 25 Sudoeste 0 -- -- 48
2018-01-09 15:00:00 13.1 14 Sudoeste 25 Sudoeste 0 -- -- 46
2018-01-09 14:00:00 13.1 2 Sudoeste 14 Oeste 0 -- -- 46
2018-01-09 13:00:00 11.8 8 Oeste 21 Oeste 0 -- -- 53
2018-01-09 12:00:00 10.8 3 Este 14 Sudeste 0 -- -- 59
2018-01-09 11:00:00 8.1 8 Este 12 Este 0 -- -- 72
2018-01-09 10:00:00 4.4 3 Este 7 Este 0 -- -- 92
2018-01-09 09:00:00 1.4 2 Sudeste 9 Este 0 -- -- 95
2018-01-09 08:00:00 1.8 5 Este 13 Sudoeste 0 -- -- 96
2018-01-09 07:00:00 1.9 6 Sudeste 15 Sudeste 0 -- -- 98
2018-01-09 06:00:00 1.6 3 Norte 9 Noroeste 0 -- -- 98
2018-01-09 05:00:00 2.4 2 Noroeste 10 Noroeste 0 -- -- 97
2018-01-09 04:00:00 3.1 3 Sur 6 Sur 0 -- -- 96
2018-01-09 03:00:00 3.8 2 Oeste 8 Sudoeste 0 -- -- 95
2018-01-09 02:00:00 5.1 4 Sur 7 Norte 0 -- -- 91
2018-01-09 01:00:00 5.8 0 Calma 6 Sur 0 -- -- 93
2018-01-09 00:00:00 6.4 3 Sur 8 Norte 0 -- -- 89
2018-01-08 23:00:00 6.5 5 Nordeste 7 Norte 0 -- -- 91
2018-01-08 22:00:00 7.1 5 Este 11 Sur 0 -- -- 89
2018-01-08 21:00:00 7.8 5 Oeste 14 Este 0 -- -- 84
2018-01-08 20:00:00 8.3 4 Este 9 Este 0 -- -- 89
2018-01-08 19:00:00 8.6 3 Norte 7 Este 0 -- -- 89
2018-01-08 18:00:00 9.7 2 Norte 8 Oeste 0 -- -- 84
2018-01-08 17:00:00 11.1 8 Noroeste 12 Oeste 0 -- -- 76
2018-01-08 16:00:00 12 8 Este 12 Sudeste 0 -- -- 79
2018-01-08 15:00:00 11.6 9 Sudeste 11 Sudeste 0 -- -- 85
2018-01-08 14:00:00 9.2 4 Oeste 6 Oeste 0 -- -- 91
2018-01-08 13:00:00 8 0 Calma 11 Sudeste 0 -- -- 90
2018-01-08 12:00:00 7.3 2 Sudeste 6 Oeste 0 -- -- 96
2018-01-08 11:00:00 4.9 2 Este 5 Este 0 -- -- 100
2018-01-08 10:00:00 2.8 0 Calma 4 Sur 0 -- -- 100
2018-01-08 09:00:00 1 4 Sudeste 6 Sudeste 0 -- -- 100
2018-01-08 08:00:00 1.4 3 Este 10 Noroeste 0 -- -- 100
2018-01-08 07:00:00 1.5 4 Noroeste 8 Noroeste 0 -- -- 100
2018-01-08 06:00:00 1.5 0 Calma 10 Noroeste 0 -- -- 99
2018-01-08 05:00:00 2 2 Oeste 8 Oeste 0 -- -- 99
2018-01-08 04:00:00 2.2 3 Noroeste 9 Este 0 -- -- 98
2018-01-08 03:00:00 3.2 5 Noroeste 12 Noroeste 0 -- -- 98
2018-01-08 02:00:00 3.7 9 Noroeste 12 Noroeste 0.2 -- -- 98
2018-01-08 01:00:00 3.3 4 Noroeste 9 Noroeste 0 -- -- 99
2018-01-08 00:00:00 3.7 5 Noroeste 7 Noroeste 0 -- -- 99
2018-01-07 23:00:00 4.6 3 Noroeste 9 Este 0 -- -- 99
2018-01-07 22:00:00 5.9 5 Noroeste 8 Noroeste 0 -- -- 99
2018-01-07 21:00:00 6.7 2 Nordeste 13 Sudeste 0 -- -- 97
2018-01-07 20:00:00 7.4 3 Oeste 13 Sudeste 0 -- -- 95
2018-01-07 19:00:00 7.7 4 Sudeste 34 Noroeste 0.2 -- -- 92
2018-01-07 18:00:00 7.9 21 Noroeste 35 Noroeste 2 -- -- 88
2018-01-07 17:00:00 7.8 15 Noroeste 28 Noroeste 2.4 -- -- 91
2018-01-07 16:00:00 8.1 14 Noroeste 26 Noroeste 1.6 -- -- 90
2018-01-07 15:00:00 8.3 16 Noroeste 25 Noroeste 1.2 -- -- 91
2018-01-07 14:00:00 8.6 13 Noroeste 19 Noroeste 3.6 -- -- 95
2018-01-07 13:00:00 9.3 4 Norte 11 Norte 1.6 -- -- 96
2018-01-07 12:00:00 9.5 4 Nordeste 10 Nordeste 0.8 -- -- 96
2018-01-07 11:00:00 9.1 5 Noroeste 27 Sur 7.8 -- -- 96
2018-01-07 10:00:00 10.7 14 Sudeste 31 Sur 2.4 -- -- 89
2018-01-07 09:00:00 11.4 5 Nordeste 13 Nordeste 0 -- -- 89
2018-01-07 08:00:00 11.8 3 Norte 9 Este 0 -- -- 87
2018-01-07 07:00:00 12.1 2 Nordeste 12 Nordeste 0 -- -- 87
2018-01-07 06:00:00 12.3 7 Este 13 Este 0 -- -- 89
2018-01-07 05:00:00 12.5 3 Este 17 Este 0 -- -- 91
2018-01-07 04:00:00 12.4 5 Nordeste 13 Norte 0.2 -- -- 93
2018-01-07 03:00:00 12.7 6 Este 17 Nordeste 0.4 -- -- 94
2018-01-07 02:00:00 13 5 Nordeste 17 Nordeste 0 -- -- 91
2018-01-07 01:00:00 13.3 7 Nordeste 23 Norte 0 -- -- 88
2018-01-07 00:00:00 13.2 8 Nordeste 26 Nordeste 0 -- -- 89
2018-01-06 23:00:00 13.2 12 Este 34 Nordeste 0 -- -- 88
2018-01-06 22:00:00 13.1 13 Nordeste 32 Norte 0 -- -- 87
2018-01-06 21:00:00 13.1 14 Nordeste 31 Norte 0 -- -- 84
2018-01-06 20:00:00 13.2 11 Nordeste 36 Nordeste 0 -- -- 83
2018-01-06 19:00:00 13.2 10 Nordeste 35 Este 0 -- -- 81
2018-01-06 18:00:00 13.2 9 Nordeste 30 Nordeste 0 -- -- 79
2018-01-06 17:00:00 13.7 11 Nordeste 25 Norte 0 -- -- 75
2018-01-06 16:00:00 14 8 Norte 25 Este 0 -- -- 74
2018-01-06 15:00:00 14.9 10 Este 20 Este 0 -- -- 72
2018-01-06 14:00:00 15 6 Nordeste 15 Norte 0 -- -- 69
2018-01-06 13:00:00 14.4 2 Norte 11 Noroeste 0 -- -- 72
2018-01-06 12:00:00 13.7 4 Norte 9 Este 0 -- -- 75
2018-01-06 11:00:00 12.5 2 Este 9 Noroeste 0 -- -- 80
2018-01-06 10:00:00 8.5 3 Noroeste 9 Oeste 0 -- -- 86
2018-01-06 09:00:00 7.1 4 Sudeste 15 Noroeste 0 -- -- 83
2018-01-06 08:00:00 7.1 5 Noroeste 15 Noroeste 0 -- -- 83
2018-01-06 07:00:00 6 10 Noroeste 18 Noroeste 0 -- -- 85
2018-01-06 06:00:00 3.8 8 Noroeste 12 Noroeste 0 -- -- 91
2018-01-06 05:00:00 5.7 6 Noroeste 14 Noroeste 0 -- -- 82
2018-01-06 04:00:00 5.6 8 Noroeste 10 Noroeste 0 -- -- 85
2018-01-06 03:00:00 6 8 Noroeste 12 Noroeste 0 -- -- 83
2018-01-06 02:00:00 4.8 4 Noroeste 11 Noroeste 0 -- -- 84
2018-01-06 01:00:00 7.2 7 Noroeste 14 Noroeste 0 -- -- 78
2018-01-06 00:00:00 5.8 7 Noroeste 12 Noroeste 0 -- -- 79
2018-01-05 23:00:00 8.3 5 Sudeste 10 Sur 0 -- -- 71
2018-01-05 22:00:00 8.8 8 Noroeste 13 Noroeste 0 -- -- 71
2018-01-05 21:00:00 7.8 5 Oeste 13 Noroeste 0 -- -- 74
2018-01-05 20:00:00 9.3 10 Noroeste 15 Noroeste 0 -- -- 70
2018-01-05 19:00:00 10.3 6 Oeste 17 Sudoeste 0 -- -- 64
2018-01-05 18:00:00 13.6 8 Sudoeste 14 Sudoeste 0 -- -- 54
2018-01-05 17:00:00 16.4 8 Oeste 24 Sudoeste 0 -- -- 47
2018-01-05 16:00:00 17.6 15 Sudoeste 28 Sudoeste 0 -- -- 46
2018-01-05 15:00:00 17.8 15 Oeste 39 Sudoeste 0 -- -- 46
2018-01-05 14:00:00 18 21 Sudoeste 35 Sudoeste 0 -- -- 45
2018-01-05 13:00:00 17.2 21 Oeste 44 Oeste 0 -- -- 48
2018-01-05 12:00:00 16.4 24 Oeste 45 Oeste 0 -- -- 53
2018-01-05 11:00:00 15.5 16 Sudoeste 29 Sudoeste 0 -- -- 57
2018-01-05 10:00:00 11.1 7 Sudoeste 14 Sudoeste 0 -- -- 75
2018-01-05 09:00:00 5.8 0 Calma 12 Sudoeste 0 -- -- 89
2018-01-05 08:00:00 6.2 2 Noroeste 10 Sudoeste 0 -- -- 88
2018-01-05 07:00:00 8.1 4 Este 12 Noroeste 0 -- -- 84
2018-01-05 06:00:00 7.3 8 Noroeste 11 Noroeste 0 -- -- 85
2018-01-05 05:00:00 7.5 0 Calma 13 Sudoeste 0 -- -- 82
2018-01-05 04:00:00 8.6 4 Noroeste 11 Oeste 0 -- -- 81
2018-01-05 03:00:00 10 3 Nordeste 13 Sudeste 0 -- -- 77
2018-01-05 02:00:00 11.2 5 Sur 12 Sudeste 0 -- -- 75
2018-01-05 01:00:00 12.7 3 Nordeste 22 Oeste 0 -- -- 66
2018-01-05 00:00:00 14.4 7 Sur 15 Oeste 0 -- -- 64
2018-01-04 23:00:00 13.9 4 Sudeste 14 Sur 0 -- -- 66
2018-01-04 22:00:00 12.5 3 Sudeste 13 Sudeste 0 -- -- 69
2018-01-04 21:00:00 12.1 3 Oeste 9 Este 0 -- -- 70
2018-01-04 20:00:00 12.6 3 Norte 10 Oeste 0 -- -- 69
2018-01-04 19:00:00 14.1 3 Oeste 9 Oeste 0 -- -- 63
2018-01-04 18:00:00 17.3 3 Sudeste 8 Este 0 -- -- 54
2018-01-04 17:00:00 19.7 6 Sudoeste 27 Oeste 0 -- -- 48
2018-01-04 16:00:00 19.9 19 Oeste 34 Oeste 0 -- -- 49
2018-01-04 15:00:00 20.5 20 Oeste 35 Oeste 0 -- -- 50
2018-01-04 14:00:00 20.3 21 Oeste 32 Oeste 0 -- -- 52
2018-01-04 13:00:00 19.5 18 Oeste 33 Oeste 0 -- -- 55
2018-01-04 12:00:00 18.8 22 Oeste 32 Oeste 0 -- -- 57
2018-01-04 11:00:00 17.9 11 Oeste 31 Oeste 0 -- -- 60
2018-01-04 10:00:00 16.2 7 Oeste 23 Noroeste 0 -- -- 66
2018-01-04 09:00:00 15.5 10 Sudoeste 32 Oeste 0 -- -- 68
2018-01-04 08:00:00 14.6 8 Sur 27 Sudeste 0 -- -- 73
2018-01-04 07:00:00 10.6 4 Este 9 Este 0 -- -- 87
2018-01-04 06:00:00 10.8 4 Norte 17 Oeste 0 -- -- 81
2018-01-04 05:00:00 13.8 10 Sudoeste 19 Oeste 0 -- -- 77
2018-01-04 04:00:00 10 3 Sur 10 Sudeste 0 -- -- 88
2018-01-04 03:00:00 11.6 5 Oeste 10 Sur 0 -- -- 84
2018-01-04 02:00:00 13.1 4 Norte 13 Sudeste 0 -- -- 78
2018-01-04 01:00:00 12.3 3 Sur 10 Nordeste 0 -- -- 78
2018-01-04 00:00:00 13.5 3 Nordeste 15 Este 0 -- -- 75
2018-01-03 23:00:00 15.5 6 Sudeste 19 Oeste 0 -- -- 66
2018-01-03 22:00:00 17.2 16 Oeste 26 Oeste 0 -- -- 60
2018-01-03 21:00:00 17.5 16 Oeste 31 Sudoeste 0 -- -- 56
2018-01-03 20:00:00 17 17 Oeste 25 Oeste 0 -- -- 52
2018-01-03 19:00:00 17 8 Oeste 20 Oeste 0 -- -- 50
2018-01-03 18:00:00 18.2 13 Oeste 33 Sudoeste 0 -- -- 50
2018-01-03 17:00:00 19.5 20 Oeste 43 Oeste 0 -- -- 53
2018-01-03 16:00:00 20.1 27 Oeste 54 Oeste 0 -- -- 53
2018-01-03 15:00:00 20.2 27 Oeste 50 Oeste 0 -- -- 54
2018-01-03 14:00:00 19.2 20 Oeste 47 Oeste 0 -- -- 59
2018-01-03 13:00:00 18.2 8 Noroeste 32 Oeste 0 -- -- 62
2018-01-03 12:00:00 16.5 7 Norte 20 Oeste 0 -- -- 68
2018-01-03 11:00:00 12.6 7 Este 21 Sudeste 0 -- -- 82
2018-01-03 10:00:00 11.4 6 Sudeste 13 Este 0 -- -- 85
2018-01-03 09:00:00 9.4 8 Sur 19 Sudeste 0 -- -- 90
2018-01-03 08:00:00 8.9 9 Sudeste 15 Sudeste 0 -- -- 89
2018-01-03 07:00:00 9.9 5 Este 18 Sudoeste 0 -- -- 86
2018-01-03 06:00:00 9.8 3 Sudeste 10 Sur 0 -- -- 88
2018-01-03 05:00:00 12.2 7 Sudoeste 26 Sudoeste 0 -- -- 79
2018-01-03 04:00:00 11.7 6 Sur 24 Oeste 0 -- -- 79
2018-01-03 03:00:00 13.3 15 Oeste 29 Sudoeste 0 -- -- 73
2018-01-03 02:00:00 13.4 18 Sudoeste 28 Oeste 0 -- -- 74
2018-01-03 01:00:00 12.5 5 Sudeste 31 Sudoeste 0 -- -- 77
2018-01-03 00:00:00 13.4 21 Oeste 34 Oeste 0 -- -- 74
2018-01-02 23:00:00 11.2 6 Oeste 15 Sudoeste 0 -- -- 79
2018-01-02 22:00:00 12.7 7 Sudeste 20 Noroeste 0 -- -- 75
2018-01-02 21:00:00 12.6 12 Oeste 29 Oeste 0 -- -- 79
2018-01-02 20:00:00 9.7 3 Este 13 Noroeste 0 -- -- 78
2018-01-02 19:00:00 10.4 5 Noroeste 10 Sudoeste 0 -- -- 75
2018-01-02 18:00:00 11.5 0 Calma 4 Sudoeste 0 -- -- 68
2018-01-02 17:00:00 15.2 2 Norte 17 Oeste 0 -- -- 60
2018-01-02 16:00:00 15.7 12 Oeste 30 Oeste 0 -- -- 57
2018-01-02 15:00:00 15.7 17 Oeste 28 Noroeste 0 -- -- 55
2018-01-02 14:00:00 15.3 14 Oeste 28 Oeste 0 -- -- 53
2018-01-02 13:00:00 14.2 10 Oeste 17 Este 0 -- -- 51
2018-01-02 12:00:00 12 8 Sudeste 14 Sudeste 0 -- -- 58
2018-01-02 11:00:00 8.5 3 Este 9 Este 0 -- -- 77
2018-01-02 10:00:00 6 3 Oeste 6 Oeste 0 -- -- 84
2018-01-02 09:00:00 4.1 5 Noroeste 12 Noroeste 0 -- -- 85
2018-01-02 08:00:00 2.7 6 Noroeste 9 Noroeste 0 -- -- 89
2018-01-02 07:00:00 3.6 6 Noroeste 10 Noroeste 0 -- -- 87
2018-01-02 06:00:00 3.8 3 Noroeste 10 Oeste 0 -- -- 85
2018-01-02 05:00:00 5.4 6 Noroeste 12 Noroeste 0 -- -- 82
2018-01-02 04:00:00 6 8 Noroeste 15 Noroeste 0 -- -- 80
2018-01-02 03:00:00 7 5 Noroeste 13 Oeste 0 -- -- 74
2018-01-02 02:00:00 9.8 16 Oeste 36 Oeste 0 -- -- 66
2018-01-02 01:00:00 10.9 22 Noroeste 55 Oeste 0 -- -- 62
2018-01-02 00:00:00 10.7 37 Oeste 59 Oeste 0 -- -- 65
2018-01-01 23:00:00 11.1 32 Oeste 53 Oeste 0 -- -- 62
2018-01-01 22:00:00 11.3 30 Oeste 46 Oeste 0 -- -- 61
2018-01-01 21:00:00 11.7 27 Oeste 45 Oeste 0 -- -- 57
2018-01-01 20:00:00 11.9 26 Oeste 44 Oeste 0 -- -- 53
2018-01-01 19:00:00 13.1 31 Oeste 57 Sudoeste 0 -- -- 47
2018-01-01 18:00:00 12.5 19 Sudoeste 57 Sudoeste 0 -- -- 47
2018-01-01 17:00:00 12.7 31 Sudoeste 54 Sudoeste 0 -- -- 46
2018-01-01 16:00:00 13.3 30 Sudoeste 48 Oeste 0 -- -- 44
2018-01-01 15:00:00 13.8 25 Sudoeste 45 Sudoeste 0 -- -- 40
2018-01-01 14:00:00 13.7 21 Sur 37 Sudoeste 0 -- -- 41
2018-01-01 13:00:00 13.1 17 Sudoeste 36 Sudoeste 0 -- -- 45
2018-01-01 12:00:00 12.4 10 Sudoeste 24 Sudoeste 0 -- -- 47
2018-01-01 11:00:00 10.9 6 Sudoeste 30 Noroeste 0 -- -- 53
2018-01-01 10:00:00 9.2 21 Oeste 34 Oeste 0 -- -- 58
2018-01-01 09:00:00 6.1 6 Sur 11 Sudeste 0 -- -- 69
2018-01-01 08:00:00 4.3 4 Sur 10 Sur 0 -- -- 71
2018-01-01 07:00:00 4.9 3 Este 13 Sudeste 0 -- -- 75
2018-01-01 06:00:00 6.5 4 Sur 11 Sudeste 0 -- -- 67
2018-01-01 05:00:00 8.3 7 Sudeste 23 Oeste 0 -- -- 67
2018-01-01 04:00:00 9.6 7 Oeste 19 Sudoeste 0 -- -- 64
2018-01-01 03:00:00 9.9 5 Este 11 Sudeste 0 -- -- 71
2018-01-01 02:00:00 11 4 Este 27 Noroeste 0 -- -- 69
2018-01-01 01:00:00 12.2 15 Noroeste 33 Noroeste 0 -- -- 68
2018-01-01 00:00:00 13.5 6 Sur 37 Sudoeste 0 -- -- 59
2017-12-31 23:00:00 14.5 19 Sudoeste 39 Sudoeste 0 -- -- 54
2017-12-31 22:00:00 14 15 Oeste 37 Oeste 0 -- -- 54
2017-12-31 21:00:00 14 14 Sudoeste 48 Oeste 0 -- -- 53
2017-12-31 20:00:00 13.2 9 Sur 24 Sudeste 0 -- -- 57
2017-12-31 19:00:00 12 4 Este 13 Sudeste 0 -- -- 62
2017-12-31 18:00:00 13.7 9 Sur 28 Oeste 0 -- -- 56
2017-12-31 17:00:00 15.1 19 Oeste 31 Oeste 0 -- -- 52
2017-12-31 16:00:00 16.4 22 Oeste 37 Oeste 0 -- -- 48
2017-12-31 15:00:00 18.4 18 Sudoeste 28 Oeste 0 -- -- 40
2017-12-31 14:00:00 16.8 5 Este 9 Este 0 -- -- 57
2017-12-31 13:00:00 14.4 4 Este 9 Sudeste 0 -- -- 69
2017-12-31 12:00:00 12.3 4 Este 8 Sudeste 0 -- -- 77
2017-12-31 11:00:00 10 3 Este 5 Sudeste 0 -- -- 95
2017-12-31 10:00:00 5.3 2 Noroeste 4 Noroeste 0 -- -- 100
2017-12-31 09:00:00 3 0 Calma 5 Noroeste 0 -- -- 100
2017-12-31 08:00:00 2.2 5 Noroeste 12 Este 0 -- -- 100
2017-12-31 07:00:00 3.4 3 Noroeste 10 Noroeste 0 -- -- 100
2017-12-31 06:00:00 3.2 0 Calma 7 Noroeste 0 -- -- 98
2017-12-31 05:00:00 4.3 4 Sudeste 10 Noroeste 0 -- -- 98
2017-12-31 04:00:00 4.6 6 Noroeste 10 Noroeste 0 -- -- 98
2017-12-31 03:00:00 5.2 3 Este 15 Noroeste 0 -- -- 94
2017-12-31 02:00:00 5.4 5 Noroeste 9 Noroeste 0 -- -- 96
2017-12-31 01:00:00 6.8 3 Noroeste 10 Oeste 0 -- -- 92